createdAt,value
2018-12-07T00:01:03.209Z,100826.31
2018-12-07T00:03:30.831Z,100815.42
2018-12-07T00:05:58.394Z,100809.99
2018-12-07T00:08:25.880Z,100807.81
2018-12-07T00:10:53.393Z,100804.56
2018-12-07T00:13:20.933Z,100808.92
2018-12-07T00:15:48.441Z,100802.32
2018-12-07T00:18:15.961Z,100795.60
2018-12-07T00:20:43.529Z,100789.26
2018-12-07T00:23:11.009Z,100791.47
2018-12-07T00:25:38.543Z,100788.53
2018-12-07T00:28:06.101Z,100783.11
2018-12-07T00:30:33.623Z,100784.94
2018-12-07T00:33:01.184Z,100781.43
2018-12-07T00:35:28.676Z,100775.44
2018-12-07T00:37:56.326Z,100767.86
2018-12-07T00:40:23.825Z,100771.86
2018-12-07T00:42:51.310Z,100761.80
2018-12-07T00:45:18.815Z,100753.59
2018-12-07T00:47:46.337Z,100752.80
2018-12-07T00:50:13.829Z,100754.88
2018-12-07T00:52:41.313Z,100752.55
2018-12-07T00:58:14.554Z,100748.16
2018-12-07T01:00:42.122Z,100741.45
2018-12-07T01:03:09.673Z,100738.98
2018-12-07T01:05:37.242Z,100746.55
2018-12-07T01:08:04.773Z,100739.77
2018-12-07T01:10:33.461Z,100725.98
2018-12-07T01:13:01.006Z,100728.37
2018-12-07T01:15:28.557Z,100729.95
2018-12-07T01:17:56.093Z,100732.84
2018-12-07T01:20:23.732Z,100735.37
2018-12-07T01:22:51.222Z,100734.34
2018-12-07T01:25:18.718Z,100721.80
2018-12-07T01:27:46.234Z,100712.81
2018-12-07T01:30:13.790Z,100715.27
2018-12-07T01:32:41.284Z,100712.81
2018-12-07T01:35:08.769Z,100705.45
2018-12-07T01:37:36.423Z,100707.95
2018-12-07T01:40:05.607Z,100711.70
2018-12-07T01:42:33.134Z,100704.66
2018-12-07T01:45:00.645Z,100708.98
2018-12-07T01:47:28.148Z,100708.98
2018-12-07T01:49:55.648Z,100711.13
2018-12-07T01:52:23.132Z,100707.24
2018-12-07T01:54:50.642Z,100702.13
2018-12-07T01:57:18.121Z,100700.20
2018-12-07T01:59:45.626Z,100693.98
2018-12-07T02:02:13.230Z,100689.84
2018-12-07T02:04:40.962Z,100692.56
2018-12-07T02:07:16.229Z,100690.16
2018-12-07T02:09:43.738Z,100690.78
2018-12-07T02:12:11.254Z,100691.59
2018-12-07T02:14:38.766Z,100691.02
2018-12-07T02:17:06.498Z,100682.31
2018-12-07T02:19:34.023Z,100678.56
2018-12-07T02:22:01.583Z,100678.23
2018-12-07T02:24:29.091Z,100672.59
2018-12-07T02:26:56.579Z,100670.67
2018-12-07T02:29:24.143Z,100666.09
2018-12-07T02:31:51.682Z,100659.02
2018-12-07T02:34:19.172Z,100655.23
2018-12-07T02:36:46.675Z,100661.48
2018-12-07T02:39:14.182Z,100659.63
2018-12-07T02:41:41.680Z,100651.42
2018-12-07T02:44:09.233Z,100652.23
2018-12-07T02:46:36.753Z,100637.23
2018-12-07T02:49:04.284Z,100644.38
2018-12-07T02:51:31.778Z,100646.81
2018-12-07T02:53:59.353Z,100644.88
2018-12-07T02:56:26.961Z,100641.13
2018-12-07T02:58:54.445Z,100633.16
2018-12-07T03:01:21.929Z,100628.84
2018-12-07T03:03:49.489Z,100625.88
2018-12-07T03:06:16.978Z,100623.49
2018-12-07T03:08:44.474Z,100616.13
2018-12-07T03:11:11.965Z,100617.24
2018-12-07T03:13:39.530Z,100617.03
2018-12-07T03:16:07.017Z,100613.17
2018-12-07T03:18:34.574Z,100616.45
2018-12-07T03:21:02.120Z,100613.17
2018-12-07T03:23:29.621Z,100601.45
2018-12-07T03:25:57.104Z,100596.28
2018-12-07T03:28:24.604Z,100601.78
2018-12-07T03:30:52.117Z,100596.59
2018-12-07T03:33:19.659Z,100592.59
2018-12-07T03:35:47.158Z,100589.48
2018-12-07T03:38:14.838Z,100585.25
2018-12-07T03:40:42.625Z,100590.67
2018-12-07T03:43:10.164Z,100589.81
2018-12-07T03:45:37.675Z,100590.11
2018-12-07T03:48:05.164Z,100580.39
2018-12-07T03:50:32.689Z,100577.35
2018-12-07T03:53:00.177Z,100574.39
2018-12-07T03:55:27.679Z,100576.53
2018-12-07T03:57:55.186Z,100566.32
2018-12-07T04:00:22.718Z,100560.64
2018-12-07T04:02:50.221Z,100562.58
2018-12-07T04:05:17.760Z,100562.58
2018-12-07T04:07:45.376Z,100563.53
2018-12-07T04:10:12.936Z,100559.22
2018-12-07T04:12:40.417Z,100566.25
2018-12-07T04:15:08.043Z,100548.68
2018-12-07T04:17:35.568Z,100551.64
2018-12-07T04:20:03.106Z,100553.32
2018-12-07T04:22:30.613Z,100545.39
2018-12-07T04:24:58.104Z,100540.55
2018-12-07T04:27:25.648Z,100545.11
2018-12-07T04:29:57.110Z,100543.00
2018-12-07T04:32:24.590Z,100530.47
2018-12-07T04:34:52.274Z,100521.55
2018-12-07T04:37:19.761Z,100518.05
2018-12-07T04:39:47.256Z,100508.63
2018-12-07T04:42:14.874Z,100502.08
2018-12-07T04:44:42.435Z,100498.30
2018-12-07T04:47:09.913Z,100496.41
2018-12-07T04:49:37.441Z,100494.02
2018-12-07T04:52:04.924Z,100494.23
2018-12-07T04:54:32.525Z,100491.77
2018-12-07T04:57:00.190Z,100488.10
2018-12-07T04:59:27.714Z,100488.34
2018-12-07T05:01:55.308Z,100473.67
2018-12-07T05:04:22.871Z,100470.05
2018-12-07T05:06:50.398Z,100469.03
2018-12-07T05:09:17.946Z,100461.92
2018-12-07T05:11:45.439Z,100461.13
2018-12-07T05:14:12.975Z,100459.85
2018-12-07T05:16:40.529Z,100464.78
2018-12-07T05:19:08.023Z,100459.36
2018-12-07T05:21:35.567Z,100452.04
2018-12-07T05:24:03.109Z,100448.02
2018-12-07T05:26:30.603Z,100436.30
2018-12-07T05:28:58.112Z,100442.22
2018-12-07T05:31:25.602Z,100432.23
2018-12-07T05:33:53.191Z,100431.24
2018-12-07T05:36:20.677Z,100431.98
2018-12-07T05:38:48.149Z,100433.58
2018-12-07T05:41:15.700Z,100428.73
2018-12-07T05:43:57.107Z,100425.44
2018-12-07T05:46:24.608Z,100420.02
2018-12-07T05:48:52.250Z,100423.22
2018-12-07T05:51:19.781Z,100415.78
2018-12-07T05:53:47.555Z,100417.05
2018-12-07T05:56:15.045Z,100410.52
2018-12-07T05:58:42.549Z,100409.16
2018-12-07T06:01:10.123Z,100405.66
2018-12-07T06:03:37.617Z,100407.27
2018-12-07T06:06:05.121Z,100397.24
2018-12-07T06:08:32.740Z,100399.42
2018-12-07T06:11:00.228Z,100392.09
2018-12-07T06:13:27.749Z,100391.28
2018-12-07T06:15:55.292Z,100386.67
2018-12-07T06:18:22.776Z,100387.70
2018-12-07T06:20:50.310Z,100383.88
2018-12-07T06:23:17.793Z,100384.33
2018-12-07T06:25:45.290Z,100380.91
2018-12-07T06:28:12.869Z,100376.06
2018-12-07T06:30:40.347Z,100378.25
2018-12-07T06:33:07.826Z,100373.64
2018-12-07T06:35:36.264Z,100372.77
2018-12-07T06:38:03.739Z,100362.78
2018-12-07T06:40:31.227Z,100362.25
2018-12-07T06:42:58.919Z,100353.53
2018-12-07T06:45:26.452Z,100357.36
2018-12-07T06:47:53.937Z,100351.31
2018-12-07T06:50:21.576Z,100339.19
2018-12-07T06:52:49.293Z,100335.95
2018-12-07T06:55:17.015Z,100335.66
2018-12-07T06:57:44.649Z,100327.89
2018-12-07T07:00:12.142Z,100322.17
2018-12-07T07:02:39.627Z,100325.91
2018-12-07T07:05:07.794Z,100321.77
2018-12-07T07:07:35.328Z,100314.91
2018-12-07T07:10:02.802Z,100318.19
2018-12-07T07:12:30.438Z,100307.50
2018-12-07T07:14:57.997Z,100304.83
2018-12-07T07:17:25.536Z,100303.48
2018-12-07T07:19:53.041Z,100299.98
2018-12-07T07:22:20.524Z,100302.86
2018-12-07T07:27:21.749Z,100296.32
2018-12-07T07:29:49.281Z,100296.08
2018-12-07T07:32:16.779Z,100285.80
2018-12-07T07:34:44.273Z,100285.80
2018-12-07T07:37:11.828Z,100291.38
2018-12-07T07:39:39.392Z,100280.13
2018-12-07T07:42:06.888Z,100277.98
2018-12-07T07:44:34.446Z,100277.91
2018-12-07T07:47:02.082Z,100271.33
2018-12-07T07:49:29.564Z,100268.41
2018-12-07T07:51:57.103Z,100262.41
2018-12-07T07:54:24.598Z,100256.20
2018-12-07T07:56:52.075Z,100264.88
2018-12-07T07:59:19.616Z,100257.07
2018-12-07T08:01:47.093Z,100249.33
2018-12-07T08:04:14.742Z,100241.73
2018-12-07T08:06:42.244Z,100241.58
2018-12-07T08:09:09.888Z,100232.23
2018-12-07T08:11:37.372Z,100229.86
2018-12-07T08:14:04.899Z,100221.14
2018-12-07T08:16:32.445Z,100217.89
2018-12-07T08:18:59.930Z,100217.07
2018-12-07T08:21:27.438Z,100216.44
2018-12-07T08:23:54.949Z,100207.73
2018-12-07T08:26:22.507Z,100208.30
2018-12-07T08:28:49.986Z,100202.79
2018-12-07T08:31:17.502Z,100210.36
2018-12-07T08:33:45.002Z,100205.17
2018-12-07T08:36:12.576Z,100197.27
2018-12-07T08:38:40.053Z,100196.16
2018-12-07T08:41:07.549Z,100192.39
2018-12-07T08:43:35.043Z,100186.42
2018-12-07T08:46:02.527Z,100186.17
2018-12-07T08:48:30.135Z,100180.51
2018-12-07T08:50:57.654Z,100182.11
2018-12-07T08:53:25.136Z,100177.55
2018-12-07T08:55:52.749Z,100167.82
2018-12-07T08:58:20.267Z,100168.63
2018-12-07T09:00:47.810Z,100164.80
2018-12-07T09:03:15.362Z,100161.76
2018-12-07T09:05:42.879Z,100151.15
2018-12-07T09:08:15.223Z,100145.18
2018-12-07T09:10:40.030Z,100143.01
2018-12-07T09:13:07.513Z,100141.95
2018-12-07T09:15:36.273Z,100137.89
2018-12-07T09:18:03.765Z,100125.86
2018-12-07T09:20:31.248Z,100123.73
2018-12-07T09:22:58.793Z,100112.67
2018-12-07T09:25:26.333Z,100118.20
2018-12-07T09:27:53.877Z,100105.98
2018-12-07T09:30:21.482Z,100105.89
2018-12-07T09:32:48.994Z,100088.80
2018-12-07T09:35:16.497Z,100089.27
2018-12-07T09:37:44.101Z,100079.54
2018-12-07T09:40:11.593Z,100077.40
2018-12-07T09:42:39.081Z,100075.70
2018-12-07T09:45:06.679Z,100077.61
2018-12-07T09:47:34.183Z,100066.06
2018-12-07T09:50:01.699Z,100052.16
2018-12-07T09:52:29.239Z,100052.41
2018-12-07T09:54:56.722Z,100044.50
2018-12-07T09:57:24.278Z,100041.55
2018-12-07T09:59:51.792Z,100031.72
2018-12-07T10:02:19.333Z,100026.86
2018-12-07T10:04:46.857Z,100027.64
2018-12-07T10:07:14.373Z,100024.36
2018-12-07T10:09:41.906Z,100015.44
2018-12-07T10:12:09.425Z,100012.15
2018-12-07T10:14:36.943Z,99998.28
2018-12-07T10:19:38.179Z,99996.10
2018-12-07T10:22:05.697Z,99986.61
2018-12-07T10:24:33.259Z,99992.27
2018-12-07T10:27:04.537Z,99989.89
2018-12-07T10:29:32.066Z,99991.16
2018-12-07T10:31:59.602Z,99984.38
2018-12-07T10:34:27.130Z,99978.61
2018-12-07T10:36:54.744Z,99976.91
2018-12-07T10:39:22.282Z,99971.04
2018-12-07T10:41:49.771Z,99976.81
2018-12-07T10:44:17.293Z,99974.09
2018-12-07T10:46:44.884Z,99960.63
2018-12-07T10:49:12.419Z,99962.91
2018-12-07T10:51:39.913Z,99951.61
2018-12-07T10:54:07.413Z,99944.48
2018-12-07T10:56:34.946Z,99943.91
2018-12-07T10:59:02.441Z,99936.68
2018-12-07T11:01:35.579Z,99930.78
2018-12-07T11:04:08.901Z,99939.16
2018-12-07T11:06:42.020Z,99930.33
2018-12-07T11:09:15.225Z,99916.43
2018-12-07T11:11:44.937Z,99902.86
2018-12-07T11:14:12.511Z,99905.34
2018-12-07T11:16:45.700Z,99893.59
2018-12-07T11:19:18.953Z,99898.45
2018-12-07T11:24:59.903Z,99900.25
2018-12-07T11:27:33.470Z,99889.19
2018-12-07T11:30:03.924Z,99884.88
2018-12-07T11:32:32.628Z,99882.30
2018-12-07T11:35:02.155Z,99877.42
2018-12-07T11:37:29.633Z,99875.62
2018-12-07T11:39:57.136Z,99868.83
2018-12-07T11:42:24.606Z,99858.53
2018-12-07T11:44:52.191Z,99851.09
2018-12-07T11:47:19.887Z,99848.92
2018-12-07T11:49:47.361Z,99843.05
2018-12-07T11:52:14.895Z,99842.48
2018-12-07T11:54:42.416Z,99835.35
2018-12-07T11:57:09.895Z,99827.11
2018-12-07T11:59:37.390Z,99810.02
2018-12-07T12:02:05.000Z,99810.02
2018-12-07T12:04:32.572Z,99802.22
2018-12-07T12:07:00.096Z,99799.27
2018-12-07T12:09:27.651Z,99783.09
2018-12-07T12:11:55.127Z,99765.56
2018-12-07T12:14:22.650Z,99761.16
2018-12-07T12:16:50.191Z,99758.68
2018-12-07T12:19:17.707Z,99752.36
2018-12-07T12:21:45.237Z,99739.47
2018-12-07T12:24:12.712Z,99737.67
2018-12-07T12:26:40.232Z,99726.45
2018-12-07T12:29:07.732Z,99711.19
2018-12-07T12:31:35.266Z,99709.17
2018-12-07T12:34:02.932Z,99699.91
2018-12-07T12:36:30.459Z,99704.17
2018-12-07T12:38:57.946Z,99694.48
2018-12-07T12:41:25.442Z,99685.09
2018-12-07T12:43:53.062Z,99683.83
2018-12-07T12:46:20.591Z,99677.19
2018-12-07T12:48:48.069Z,99672.54
2018-12-07T12:51:15.637Z,99665.87
2018-12-07T12:53:43.113Z,99657.50
2018-12-07T12:56:10.642Z,99652.07
2018-12-07T12:58:38.188Z,99645.28
2018-12-07T13:01:05.662Z,99640.88
2018-12-07T13:03:33.239Z,99615.91
2018-12-07T13:06:00.737Z,99619.75
2018-12-07T13:08:28.218Z,99612.19
2018-12-07T13:10:55.788Z,99609.67
2018-12-07T13:13:23.270Z,99605.17
2018-12-07T13:15:50.749Z,99597.27
2018-12-07T13:18:18.395Z,99588.08
2018-12-07T13:20:45.880Z,99584.36
2018-12-07T13:23:13.400Z,99572.73
2018-12-07T13:25:40.953Z,99565.48
2018-12-07T13:28:08.557Z,99560.72
2018-12-07T13:30:36.043Z,99554.17
2018-12-07T13:33:03.525Z,99545.25
2018-12-07T13:35:31.474Z,99535.30
2018-12-07T13:37:58.958Z,99525.25
2018-12-07T13:40:26.536Z,99518.01
2018-12-07T13:42:54.167Z,99518.01
2018-12-07T13:45:21.864Z,99518.59
2018-12-07T13:47:49.732Z,99499.91
2018-12-07T13:50:23.334Z,99502.31
2018-12-07T13:52:51.146Z,99493.94
2018-12-07T13:55:18.812Z,99492.23
2018-12-07T13:57:46.453Z,99486.93
2018-12-07T14:00:14.092Z,99478.10
2018-12-07T14:02:42.033Z,99470.73
2018-12-07T14:05:09.659Z,99468.37
2018-12-07T14:07:37.214Z,99459.66
2018-12-07T14:10:05.700Z,99459.89
2018-12-07T14:12:33.246Z,99455.71
2018-12-07T14:15:00.722Z,99448.03
2018-12-07T14:17:28.249Z,99438.19
2018-12-07T14:19:56.149Z,99432.33
2018-12-07T14:22:23.906Z,99415.25
2018-12-07T14:24:51.624Z,99422.84
2018-12-07T14:27:19.302Z,99408.39
2018-12-07T14:29:47.139Z,99406.23
2018-12-07T14:32:14.747Z,99406.45
2018-12-07T14:34:42.330Z,99401.27
2018-12-07T14:37:10.068Z,99401.27
2018-12-07T14:39:38.478Z,99383.87
2018-12-07T14:42:06.285Z,99386.94
2018-12-07T14:44:34.096Z,99377.33
2018-12-07T14:47:01.769Z,99367.06
2018-12-07T14:49:29.394Z,99365.25
2018-12-07T14:51:57.062Z,99346.62
2018-12-07T14:54:24.887Z,99347.05
2018-12-07T14:56:52.504Z,99344.91
2018-12-07T14:59:20.087Z,99346.39
2018-12-07T15:01:47.922Z,99343.91
2018-12-07T15:04:15.650Z,99339.61
2018-12-07T15:06:43.282Z,99324.39
2018-12-07T15:09:10.897Z,99326.75
2018-12-07T15:11:38.643Z,99319.97
2018-12-07T15:14:06.190Z,99311.97
2018-12-07T15:16:34.164Z,99306.77
2018-12-07T15:19:01.881Z,99304.25
2018-12-07T15:21:29.519Z,99306.77
2018-12-07T15:23:57.331Z,99296.59
2018-12-07T15:26:25.135Z,99288.46
2018-12-07T15:28:52.907Z,99283.84
2018-12-07T15:31:20.751Z,99281.12
2018-12-07T15:33:48.763Z,99276.13
2018-12-07T15:36:16.286Z,99271.97
2018-12-07T15:38:43.956Z,99264.63
2018-12-07T15:41:11.564Z,99257.05
2018-12-07T15:43:39.149Z,99254.69
2018-12-07T15:46:06.765Z,99254.50
2018-12-07T15:48:34.397Z,99235.52
2018-12-07T15:51:02.893Z,99238.78
2018-12-07T15:53:30.582Z,99231.00
2018-12-07T15:56:00.368Z,99236.42
2018-12-07T15:58:28.284Z,99229.87
2018-12-07T16:00:56.161Z,99223.31
2018-12-07T16:03:23.741Z,99222.28
2018-12-07T16:05:51.632Z,99204.95
2018-12-07T16:08:24.869Z,99204.39
2018-12-07T16:10:49.617Z,99201.67
2018-12-07T16:13:17.350Z,99191.52
2018-12-07T16:15:45.337Z,99193.19
2018-12-07T16:18:13.067Z,99183.83
2018-12-07T16:20:40.816Z,99182.70
2018-12-07T16:23:08.569Z,99171.56
2018-12-07T16:25:36.130Z,99165.91
2018-12-07T16:28:03.711Z,99158.88
2018-12-07T16:30:31.314Z,99155.84
2018-12-07T16:32:59.189Z,99154.30
2018-12-07T16:35:26.704Z,99148.66
2018-12-07T16:37:54.455Z,99142.00
2018-12-07T16:40:22.222Z,99135.58
2018-12-07T16:42:49.860Z,99129.64
2018-12-07T16:45:17.443Z,99122.86
2018-12-07T16:47:44.928Z,99126.92
2018-12-07T16:50:12.768Z,99124.22
2018-12-07T16:52:40.300Z,99116.86
2018-12-07T16:55:07.907Z,99106.02
2018-12-07T16:57:35.619Z,99114.38
2018-12-07T17:00:03.298Z,99094.05
2018-12-07T17:02:31.074Z,99090.25
2018-12-07T17:04:58.639Z,99079.31
2018-12-07T17:07:26.375Z,99075.47
2018-12-07T17:09:54.066Z,99059.22
2018-12-07T17:12:21.807Z,99065.77
2018-12-07T17:14:49.497Z,99074.24
2018-12-07T17:17:17.250Z,99131.52
2018-12-07T17:19:44.972Z,99211.16
2018-12-07T17:22:12.595Z,99213.96
2018-12-07T17:24:40.240Z,99215.92
2018-12-07T17:27:07.729Z,99215.91
2018-12-07T17:29:35.202Z,99218.42
2018-12-07T17:32:02.981Z,99224.95
2018-12-07T17:34:30.720Z,99234.05
2018-12-07T17:36:58.522Z,99243.17
2018-12-07T17:39:26.142Z,99247.12
2018-12-07T17:41:53.645Z,99254.32
2018-12-07T17:44:21.441Z,99260.38
2018-12-07T17:46:48.946Z,99263.06
2018-12-07T17:49:17.007Z,99265.30
2018-12-07T17:51:44.598Z,99277.77
2018-12-07T17:54:12.177Z,99283.98
2018-12-07T17:56:39.920Z,99286.27
2018-12-07T17:59:07.586Z,99297.41
2018-12-07T18:01:35.073Z,99302.77
2018-12-07T18:04:02.608Z,99312.52
2018-12-07T18:06:30.686Z,99329.68
2018-12-07T18:08:58.416Z,99327.88
2018-12-07T18:11:26.001Z,99331.50
2018-12-07T18:13:53.882Z,99330.56
2018-12-07T18:16:21.460Z,99325.35
2018-12-07T18:18:49.187Z,99327.36
2018-12-07T18:21:16.824Z,99326.31
2018-12-07T18:23:44.399Z,99325.91
2018-12-07T18:26:11.960Z,99335.11
2018-12-07T18:28:39.878Z,99340.15
2018-12-07T18:31:07.687Z,99347.38
2018-12-07T18:33:35.210Z,99351.72
2018-12-07T18:36:02.876Z,99349.20
2018-12-07T18:38:30.542Z,99351.42
2018-12-07T18:40:58.328Z,99350.64
2018-12-07T18:43:25.927Z,99358.16
2018-12-07T18:45:53.750Z,99363.41
2018-12-07T18:48:21.599Z,99371.98
2018-12-07T18:50:49.448Z,99388.34
2018-12-07T18:53:17.255Z,99390.11
2018-12-07T18:55:44.832Z,99399.87
2018-12-07T18:58:12.669Z,99399.30
2018-12-07T19:00:40.648Z,99415.34
2018-12-07T19:03:08.392Z,99421.30
2018-12-07T19:05:36.120Z,99434.63
2018-12-07T19:08:03.752Z,99427.52
2018-12-07T19:10:31.457Z,99425.44
2018-12-07T19:13:00.476Z,99424.98
2018-12-07T19:15:28.284Z,99442.11
2018-12-07T19:17:55.980Z,99449.98
2018-12-07T19:20:23.942Z,99449.66
2018-12-07T19:22:51.704Z,99464.25
2018-12-07T19:25:19.511Z,99467.92
2018-12-07T19:27:47.362Z,99476.38
2018-12-07T19:30:15.447Z,99484.09
2018-12-07T19:32:43.468Z,99492.56
2018-12-07T19:35:11.022Z,99497.89
2018-12-07T19:37:38.692Z,99496.38
2018-12-07T19:40:06.560Z,99491.88
2018-12-07T19:42:34.583Z,99497.27
2018-12-07T19:45:02.585Z,99501.06
2018-12-07T19:47:30.249Z,99505.19
2018-12-07T19:49:57.825Z,99500.52
2018-12-07T19:52:25.857Z,99501.95
2018-12-07T19:54:53.369Z,99502.73
2018-12-07T19:57:21.128Z,99510.56
2018-12-07T19:59:48.874Z,99519.47
2018-12-07T20:02:16.635Z,99524.61
2018-12-07T20:04:44.449Z,99536.41
2018-12-07T20:07:11.970Z,99521.13
2018-12-07T20:09:39.454Z,99536.41
2018-12-07T20:12:07.200Z,99546.73
2018-12-07T20:14:35.688Z,99546.31
2018-12-07T20:17:03.436Z,99551.22
2018-12-07T20:19:31.032Z,99553.13
2018-12-07T20:21:58.841Z,99565.02
2018-12-07T20:24:26.679Z,99568.59
2018-12-07T20:26:54.393Z,99568.02
2018-12-07T20:29:21.990Z,99569.20
2018-12-07T20:31:49.584Z,99567.31
2018-12-07T20:34:17.171Z,99576.89
2018-12-07T20:36:44.763Z,99582.77
2018-12-07T20:39:12.662Z,99595.11
2018-12-07T20:41:40.438Z,99595.05
2018-12-07T20:44:08.751Z,99599.89
2018-12-07T20:46:37.294Z,99597.59
2018-12-07T20:49:05.684Z,99600.89
2018-12-07T20:51:34.249Z,99606.53
2018-12-07T20:54:03.211Z,99625.20
2018-12-07T20:56:31.594Z,99639.17
2018-12-07T20:59:00.192Z,99650.14
2018-12-07T21:01:28.951Z,99642.59
2018-12-07T21:04:24.928Z,99629.99
2018-12-07T21:13:49.031Z,99620.52
2018-12-07T21:16:33.545Z,99635.73
2018-12-07T21:19:01.345Z,99635.80
2018-12-07T21:21:29.002Z,99636.30
2018-12-07T21:23:56.817Z,99646.07
2018-12-07T21:26:24.896Z,99641.81
2018-12-07T21:28:52.783Z,99648.94
2018-12-07T21:31:20.573Z,99660.30
2018-12-07T21:33:50.884Z,99661.19
2018-12-07T21:36:33.606Z,99667.42
2018-12-07T21:39:01.223Z,99655.81
2018-12-07T21:41:28.784Z,99666.89
2018-12-07T21:43:56.742Z,99662.86
2018-12-07T21:46:24.365Z,99667.02
2018-12-07T21:48:52.250Z,99666.37
2018-12-07T21:51:24.501Z,99672.78
2018-12-07T21:53:52.167Z,99667.78
2018-12-07T21:56:19.851Z,99681.48
2018-12-07T21:58:47.479Z,99690.25
2018-12-07T22:01:15.082Z,99693.47
2018-12-07T22:03:42.675Z,99701.48
2018-12-07T22:06:10.562Z,99704.97
2018-12-07T22:08:38.207Z,99717.39
2018-12-07T22:11:06.426Z,99706.16
2018-12-07T22:13:34.367Z,99719.67
2018-12-07T22:16:01.868Z,99720.20
2018-12-07T22:18:29.620Z,99717.83
2018-12-07T22:20:57.545Z,99726.15
2018-12-07T22:23:25.603Z,99729.16
2018-12-07T22:25:53.549Z,99724.98
2018-12-07T22:28:21.426Z,99734.28
2018-12-07T22:30:48.935Z,99754.35
2018-12-07T22:33:16.746Z,99746.22
2018-12-07T22:35:44.496Z,99736.17
2018-12-07T22:38:12.308Z,99740.33
2018-12-07T22:40:40.182Z,99740.39
2018-12-07T22:43:07.739Z,99743.45
2018-12-07T22:45:35.869Z,99739.63
2018-12-07T22:48:03.627Z,99745.48
2018-12-07T22:50:31.164Z,99735.14
2018-12-07T22:52:58.654Z,99747.00
2018-12-07T22:55:26.185Z,99749.52
2018-12-07T22:57:53.701Z,99752.27
2018-12-07T23:00:22.336Z,99744.98
2018-12-07T23:02:49.821Z,99751.15
2018-12-07T23:05:17.325Z,99747.78
2018-12-07T23:07:44.817Z,99756.95
2018-12-07T23:10:12.347Z,99756.44
2018-12-07T23:12:40.991Z,99754.17
2018-12-07T23:15:09.053Z,99753.95
2018-12-07T23:17:36.554Z,99757.47
2018-12-07T23:20:05.206Z,99747.54
2018-12-07T23:22:32.971Z,99750.66
2018-12-07T23:25:01.268Z,99742.95
2018-12-07T23:27:28.804Z,99754.41
2018-12-07T23:29:56.361Z,99747.48
2018-12-07T23:32:23.918Z,99754.52
2018-12-07T23:34:51.427Z,99751.02
2018-12-07T23:37:18.903Z,99748.16
2018-12-07T23:39:46.561Z,99754.83
2018-12-07T23:42:14.113Z,99754.88
2018-12-07T23:44:41.589Z,99764.28
2018-12-07T23:47:09.159Z,99753.28
2018-12-07T23:49:36.652Z,99756.27
2018-12-07T23:52:04.167Z,99758.40
2018-12-07T23:54:31.720Z,99756.33
2018-12-07T23:56:59.201Z,99758.50
2018-12-07T23:59:26.684Z,99762.41
